KTCM/TCM METAR and TAF weather

Enter ICAO airport designator
Station Type Date Time Source
KTCM METAR 2020/08/10 23:58 UTC NOAA

KTCM 102358Z AUTO 07004KT 10SM CLR 27/12 A3000 RMK AO2 SLP162 57021


Station Type Date Time Source
KTCM Decoded METAR 2020/08/10 23:58 UTC NOAA

Tacoma / McChord Air Force Base, WA, United States (KTCM) 47-09N 122-29W 87M
Aug 10, 2020 - 07:58 PM EDT / 2020.08.10 2358 UTC
Wind: from the ENE (070 degrees) at 5 MPH (4 KT):0
Visibility: 10 mile(s):0
Sky conditions: clear
Temperature: 80 F (27 C)
Dew Point: 53 F (12 C)
Relative Humidity: 39%
Pressure (altimeter): 30 in. Hg (1015 hPa)
Pressure tendency: 0.06 inches (2.1 hPa) lower than three hours ago
ob: KTCM 102358Z AUTO 07004KT 10SM CLR 27/12 A3000 RMK AO2 SLP162 57021
cycle: 0

Station Type Date Time Source
KTCM TAF 2020/08/10 21:03 UTC NOAA

TAF TAF KTCM 102100Z 1021/1203 35008KT 9999 SKC QNH2996INS
BECMG 1104/1105 34005KT 9999 SCT040 QNH2997INS
BECMG 1108/1109 26003KT 9999 OVC035 QNH2997INS
BECMG 1111/1112 21005KT 9999 OVC015 QNH2999INS
BECMG 1117/1118 23006KT 9999 SKC QNH2993INS TX28/1023Z TN12/1113Z

Example: see airport list